sensor_id;sensor_type;location;lat;lon;timestamp;P1;durP1;ratioP1;P2;durP2;ratioP2
23181;SDS011;11759;51.282;6.642;2024-01-30T00:01:53;23.52;;;11.68;;
23181;SDS011;11759;51.282;6.642;2024-01-30T00:04:20;24.75;;;11.70;;
23181;SDS011;11759;51.282;6.642;2024-01-30T00:06:46;22.13;;;11.15;;
23181;SDS011;11759;51.282;6.642;2024-01-30T00:09:13;22.33;;;11.32;;
23181;SDS011;11759;51.282;6.642;2024-01-30T00:11:40;22.23;;;12.00;;
23181;SDS011;11759;51.282;6.642;2024-01-30T00:14:07;19.02;;;10.93;;
23181;SDS011;11759;51.282;6.642;2024-01-30T00:16:33;25.45;;;12.27;;
23181;SDS011;11759;51.282;6.642;2024-01-30T00:19:00;21.80;;;11.95;;
23181;SDS011;11759;51.282;6.642;2024-01-30T00:21:28;27.10;;;11.52;;
23181;SDS011;11759;51.282;6.642;2024-01-30T00:23:55;22.20;;;11.75;;
23181;SDS011;11759;51.282;6.642;2024-01-30T00:26:21;27.95;;;12.77;;
23181;SDS011;11759;51.282;6.642;2024-01-30T00:28:48;24.42;;;11.98;;
23181;SDS011;11759;51.282;6.642;2024-01-30T00:31:15;26.10;;;11.52;;
23181;SDS011;11759;51.282;6.642;2024-01-30T00:33:42;19.58;;;11.20;;
23181;SDS011;11759;51.282;6.642;2024-01-30T00:36:09;20.65;;;12.27;;
23181;SDS011;11759;51.282;6.642;2024-01-30T00:38:36;24.58;;;11.32;;
23181;SDS011;11759;51.282;6.642;2024-01-30T00:41:03;26.48;;;12.85;;
23181;SDS011;11759;51.282;6.642;2024-01-30T00:43:30;25.02;;;12.48;;
23181;SDS011;11759;51.282;6.642;2024-01-30T00:45:57;31.55;;;13.10;;
23181;SDS011;11759;51.282;6.642;2024-01-30T00:48:24;20.30;;;11.82;;
23181;SDS011;11759;51.282;6.642;2024-01-30T00:50:51;23.17;;;12.05;;
23181;SDS011;11759;51.282;6.642;2024-01-30T00:53:17;26.55;;;12.88;;
23181;SDS011;11759;51.282;6.642;2024-01-30T00:55:44;30.45;;;12.93;;
23181;SDS011;11759;51.282;6.642;2024-01-30T00:58:10;28.38;;;13.82;;
23181;SDS011;11759;51.282;6.642;2024-01-30T01:00:37;28.10;;;13.40;;
23181;SDS011;11759;51.282;6.642;2024-01-30T01:03:04;27.92;;;13.15;;
23181;SDS011;11759;51.282;6.642;2024-01-30T01:05:31;31.83;;;13.15;;
23181;SDS011;11759;51.282;6.642;2024-01-30T01:07:57;31.83;;;13.32;;
23181;SDS011;11759;51.282;6.642;2024-01-30T01:10:24;29.10;;;13.35;;
23181;SDS011;11759;51.282;6.642;2024-01-30T01:12:51;21.80;;;12.25;;
23181;SDS011;11759;51.282;6.642;2024-01-30T01:15:17;24.50;;;13.25;;
23181;SDS011;11759;51.282;6.642;2024-01-30T01:17:44;28.42;;;14.02;;
23181;SDS011;11759;51.282;6.642;2024-01-30T01:20:11;27.08;;;13.73;;
23181;SDS011;11759;51.282;6.642;2024-01-30T01:22:37;29.00;;;13.27;;
23181;SDS011;11759;51.282;6.642;2024-01-30T01:25:05;28.63;;;13.55;;
23181;SDS011;11759;51.282;6.642;2024-01-30T01:27:36;32.33;;;14.30;;
23181;SDS011;11759;51.282;6.642;2024-01-30T01:32:36;29.55;;;14.45;;
23181;SDS011;11759;51.282;6.642;2024-01-30T01:35:03;32.65;;;14.35;;
23181;SDS011;11759;51.282;6.642;2024-01-30T01:37:32;24.52;;;13.70;;
23181;SDS011;11759;51.282;6.642;2024-01-30T01:39:58;26.30;;;13.90;;
23181;SDS011;11759;51.282;6.642;2024-01-30T01:42:26;30.60;;;14.55;;
23181;SDS011;11759;51.282;6.642;2024-01-30T01:44:52;24.38;;;13.65;;
23181;SDS011;11759;51.282;6.642;2024-01-30T01:47:19;33.28;;;14.23;;
23181;SDS011;11759;51.282;6.642;2024-01-30T01:49:46;26.50;;;14.07;;
23181;SDS011;11759;51.282;6.642;2024-01-30T01:52:13;29.15;;;14.07;;
23181;SDS011;11759;51.282;6.642;2024-01-30T01:54:39;36.20;;;15.13;;
23181;SDS011;11759;51.282;6.642;2024-01-30T01:57:07;32.35;;;14.90;;
23181;SDS011;11759;51.282;6.642;2024-01-30T01:59:33;30.13;;;14.88;;
23181;SDS011;11759;51.282;6.642;2024-01-30T02:02:00;31.15;;;15.50;;
23181;SDS011;11759;51.282;6.642;2024-01-30T02:04:28;25.63;;;13.82;;
23181;SDS011;11759;51.282;6.642;2024-01-30T02:06:55;29.77;;;14.38;;
23181;SDS011;11759;51.282;6.642;2024-01-30T02:09:22;33.65;;;16.67;;
23181;SDS011;11759;51.282;6.642;2024-01-30T02:11:49;29.15;;;14.55;;
23181;SDS011;11759;51.282;6.642;2024-01-30T02:14:16;27.88;;;14.77;;
23181;SDS011;11759;51.282;6.642;2024-01-30T02:16:42;33.08;;;15.15;;
23181;SDS011;11759;51.282;6.642;2024-01-30T02:19:09;29.48;;;15.20;;
23181;SDS011;11759;51.282;6.642;2024-01-30T02:21:36;36.22;;;16.40;;
23181;SDS011;11759;51.282;6.642;2024-01-30T02:24:02;30.38;;;14.60;;
23181;SDS011;11759;51.282;6.642;2024-01-30T02:26:29;29.42;;;14.40;;
23181;SDS011;11759;51.282;6.642;2024-01-30T02:28:56;30.83;;;15.65;;
23181;SDS011;11759;51.282;6.642;2024-01-30T02:31:23;30.42;;;15.20;;
23181;SDS011;11759;51.282;6.642;2024-01-30T02:33:51;30.83;;;15.25;;
23181;SDS011;11759;51.282;6.642;2024-01-30T02:36:18;26.92;;;14.82;;
23181;SDS011;11759;51.282;6.642;2024-01-30T02:38:44;29.77;;;14.73;;
23181;SDS011;11759;51.282;6.642;2024-01-30T02:41:12;33.38;;;14.43;;
23181;SDS011;11759;51.282;6.642;2024-01-30T02:43:39;28.75;;;14.52;;
23181;SDS011;11759;51.282;6.642;2024-01-30T02:46:05;34.08;;;15.02;;
23181;SDS011;11759;51.282;6.642;2024-01-30T02:48:32;28.75;;;15.05;;
23181;SDS011;11759;51.282;6.642;2024-01-30T02:50:59;33.00;;;15.35;;
23181;SDS011;11759;51.282;6.642;2024-01-30T02:53:25;29.77;;;13.70;;
23181;SDS011;11759;51.282;6.642;2024-01-30T02:55:52;30.80;;;14.52;;
23181;SDS011;11759;51.282;6.642;2024-01-30T02:58:19;36.03;;;15.18;;
23181;SDS011;11759;51.282;6.642;2024-01-30T03:00:46;26.88;;;13.57;;
23181;SDS011;11759;51.282;6.642;2024-01-30T03:03:13;29.45;;;14.35;;
23181;SDS011;11759;51.282;6.642;2024-01-30T03:05:39;25.63;;;13.75;;
23181;SDS011;11759;51.282;6.642;2024-01-30T03:08:06;30.90;;;14.68;;
23181;SDS011;11759;51.282;6.642;2024-01-30T03:10:33;27.85;;;14.13;;
23181;SDS011;11759;51.282;6.642;2024-01-30T03:12:59;29.00;;;14.60;;
23181;SDS011;11759;51.282;6.642;2024-01-30T03:15:27;26.83;;;14.38;;
23181;SDS011;11759;51.282;6.642;2024-01-30T03:17:53;31.27;;;15.05;;
23181;SDS011;11759;51.282;6.642;2024-01-30T03:20:20;29.92;;;14.55;;
23181;SDS011;11759;51.282;6.642;2024-01-30T03:22:47;28.30;;;13.88;;
23181;SDS011;11759;51.282;6.642;2024-01-30T03:25:13;33.47;;;14.35;;
23181;SDS011;11759;51.282;6.642;2024-01-30T03:27:40;36.15;;;14.00;;
23181;SDS011;11759;51.282;6.642;2024-01-30T03:30:07;29.63;;;14.02;;
23181;SDS011;11759;51.282;6.642;2024-01-30T03:32:34;28.85;;;14.95;;
23181;SDS011;11759;51.282;6.642;2024-01-30T03:35:01;26.58;;;14.23;;
23181;SDS011;11759;51.282;6.642;2024-01-30T03:37:28;31.73;;;14.25;;
23181;SDS011;11759;51.282;6.642;2024-01-30T03:39:54;32.55;;;14.65;;
23181;SDS011;11759;51.282;6.642;2024-01-30T03:42:21;33.67;;;15.48;;
23181;SDS011;11759;51.282;6.642;2024-01-30T03:44:48;29.85;;;15.20;;
23181;SDS011;11759;51.282;6.642;2024-01-30T03:47:18;42.08;;;15.30;;
23181;SDS011;11759;51.282;6.642;2024-01-30T03:49:45;30.88;;;14.90;;
23181;SDS011;11759;51.282;6.642;2024-01-30T03:52:12;34.58;;;15.23;;
23181;SDS011;11759;51.282;6.642;2024-01-30T03:54:38;32.22;;;15.50;;
23181;SDS011;11759;51.282;6.642;2024-01-30T03:57:05;36.22;;;13.95;;
23181;SDS011;11759;51.282;6.642;2024-01-30T03:59:32;33.50;;;15.80;;
23181;SDS011;11759;51.282;6.642;2024-01-30T04:01:59;28.27;;;14.98;;
23181;SDS011;11759;51.282;6.642;2024-01-30T04:04:26;27.73;;;14.07;;
23181;SDS011;11759;51.282;6.642;2024-01-30T04:06:53;35.88;;;16.08;;
23181;SDS011;11759;51.282;6.642;2024-01-30T04:09:19;29.33;;;15.23;;
23181;SDS011;11759;51.282;6.642;2024-01-30T04:11:46;27.77;;;15.32;;
23181;SDS011;11759;51.282;6.642;2024-01-30T04:14:13;35.72;;;16.23;;
23181;SDS011;11759;51.282;6.642;2024-01-30T04:16:39;31.33;;;15.23;;
23181;SDS011;11759;51.282;6.642;2024-01-30T04:19:06;31.30;;;16.17;;
23181;SDS011;11759;51.282;6.642;2024-01-30T04:21:33;32.65;;;15.50;;
23181;SDS011;11759;51.282;6.642;2024-01-30T04:23:59;31.58;;;15.98;;
23181;SDS011;11759;51.282;6.642;2024-01-30T04:26:26;30.13;;;14.30;;
23181;SDS011;11759;51.282;6.642;2024-01-30T04:28:52;31.60;;;14.95;;
23181;SDS011;11759;51.282;6.642;2024-01-30T04:31:19;30.50;;;15.13;;
23181;SDS011;11759;51.282;6.642;2024-01-30T04:33:46;31.98;;;15.07;;
23181;SDS011;11759;51.282;6.642;2024-01-30T04:36:12;27.52;;;14.63;;
23181;SDS011;11759;51.282;6.642;2024-01-30T04:38:39;28.05;;;14.32;;
23181;SDS011;11759;51.282;6.642;2024-01-30T04:41:06;29.08;;;14.07;;
23181;SDS011;11759;51.282;6.642;2024-01-30T04:43:32;28.42;;;14.20;;
23181;SDS011;11759;51.282;6.642;2024-01-30T04:45:59;23.17;;;12.93;;
23181;SDS011;11759;51.282;6.642;2024-01-30T04:48:26;30.75;;;14.50;;
23181;SDS011;11759;51.282;6.642;2024-01-30T04:50:52;26.75;;;13.57;;
23181;SDS011;11759;51.282;6.642;2024-01-30T04:53:20;29.85;;;12.70;;
23181;SDS011;11759;51.282;6.642;2024-01-30T04:55:46;29.83;;;12.88;;
23181;SDS011;11759;51.282;6.642;2024-01-30T04:58:13;22.95;;;12.48;;
23181;SDS011;11759;51.282;6.642;2024-01-30T05:00:39;22.20;;;11.82;;
23181;SDS011;11759;51.282;6.642;2024-01-30T05:03:06;25.27;;;12.32;;
23181;SDS011;11759;51.282;6.642;2024-01-30T05:05:33;28.35;;;12.68;;
23181;SDS011;11759;51.282;6.642;2024-01-30T05:07:59;29.15;;;13.02;;
23181;SDS011;11759;51.282;6.642;2024-01-30T05:10:26;28.33;;;11.27;;
23181;SDS011;11759;51.282;6.642;2024-01-30T05:12:55;27.10;;;11.38;;
23181;SDS011;11759;51.282;6.642;2024-01-30T05:15:21;25.38;;;13.85;;
23181;SDS011;11759;51.282;6.642;2024-01-30T05:17:48;23.15;;;12.35;;
23181;SDS011;11759;51.282;6.642;2024-01-30T05:20:15;27.85;;;12.23;;
23181;SDS011;11759;51.282;6.642;2024-01-30T05:22:42;26.00;;;12.23;;
23181;SDS011;11759;51.282;6.642;2024-01-30T05:25:14;22.08;;;11.18;;
23181;SDS011;11759;51.282;6.642;2024-01-30T05:27:41;27.17;;;12.10;;
23181;SDS011;11759;51.282;6.642;2024-01-30T05:30:08;28.92;;;12.25;;
23181;SDS011;11759;51.282;6.642;2024-01-30T05:32:35;27.17;;;12.55;;
23181;SDS011;11759;51.282;6.642;2024-01-30T05:35:02;29.15;;;11.95;;
23181;SDS011;11759;51.282;6.642;2024-01-30T05:37:29;27.33;;;12.07;;
23181;SDS011;11759;51.282;6.642;2024-01-30T05:39:56;26.63;;;12.68;;
23181;SDS011;11759;51.282;6.642;2024-01-30T05:42:23;23.80;;;12.63;;
23181;SDS011;11759;51.282;6.642;2024-01-30T05:44:49;20.65;;;11.65;;
23181;SDS011;11759;51.282;6.642;2024-01-30T05:47:16;30.58;;;12.63;;
23181;SDS011;11759;51.282;6.642;2024-01-30T05:49:43;24.33;;;12.85;;
23181;SDS011;11759;51.282;6.642;2024-01-30T05:52:09;22.63;;;11.20;;
23181;SDS011;11759;51.282;6.642;2024-01-30T05:54:36;24.92;;;13.18;;
23181;SDS011;11759;51.282;6.642;2024-01-30T05:57:03;18.98;;;10.90;;
23181;SDS011;11759;51.282;6.642;2024-01-30T05:59:29;27.20;;;12.45;;
23181;SDS011;11759;51.282;6.642;2024-01-30T06:01:56;29.63;;;13.35;;
23181;SDS011;11759;51.282;6.642;2024-01-30T06:04:23;24.83;;;11.95;;
23181;SDS011;11759;51.282;6.642;2024-01-30T06:06:50;30.40;;;13.23;;
23181;SDS011;11759;51.282;6.642;2024-01-30T06:09:17;24.25;;;12.07;;
23181;SDS011;11759;51.282;6.642;2024-01-30T06:11:43;24.00;;;12.30;;
23181;SDS011;11759;51.282;6.642;2024-01-30T06:14:10;22.88;;;12.00;;
23181;SDS011;11759;51.282;6.642;2024-01-30T06:16:37;27.70;;;12.50;;
23181;SDS011;11759;51.282;6.642;2024-01-30T06:19:03;25.75;;;12.57;;
23181;SDS011;11759;51.282;6.642;2024-01-30T06:21:30;25.83;;;12.15;;
23181;SDS011;11759;51.282;6.642;2024-01-30T06:23:57;22.65;;;11.65;;
23181;SDS011;11759;51.282;6.642;2024-01-30T06:26:24;25.20;;;12.43;;
23181;SDS011;11759;51.282;6.642;2024-01-30T06:28:51;23.88;;;11.82;;
23181;SDS011;11759;51.282;6.642;2024-01-30T06:31:17;26.20;;;12.77;;
23181;SDS011;11759;51.282;6.642;2024-01-30T06:33:46;23.77;;;12.68;;
23181;SDS011;11759;51.282;6.642;2024-01-30T06:36:13;33.28;;;13.30;;
23181;SDS011;11759;51.282;6.642;2024-01-30T06:38:40;27.85;;;13.10;;
23181;SDS011;11759;51.282;6.642;2024-01-30T06:41:07;25.10;;;12.43;;
23181;SDS011;11759;51.282;6.642;2024-01-30T06:43:34;29.10;;;12.55;;
23181;SDS011;11759;51.282;6.642;2024-01-30T06:46:01;19.90;;;12.05;;
23181;SDS011;11759;51.282;6.642;2024-01-30T06:48:28;25.30;;;12.68;;
23181;SDS011;11759;51.282;6.642;2024-01-30T06:50:54;24.67;;;13.73;;
23181;SDS011;11759;51.282;6.642;2024-01-30T06:53:21;22.00;;;12.02;;
23181;SDS011;11759;51.282;6.642;2024-01-30T06:55:48;29.23;;;13.52;;
23181;SDS011;11759;51.282;6.642;2024-01-30T06:58:14;25.58;;;12.80;;
23181;SDS011;11759;51.282;6.642;2024-01-30T07:00:41;24.85;;;14.18;;
23181;SDS011;11759;51.282;6.642;2024-01-30T07:03:08;25.58;;;12.45;;
23181;SDS011;11759;51.282;6.642;2024-01-30T07:05:34;30.10;;;12.35;;
23181;SDS011;11759;51.282;6.642;2024-01-30T07:08:01;26.83;;;13.35;;
23181;SDS011;11759;51.282;6.642;2024-01-30T07:10:28;30.40;;;13.02;;
23181;SDS011;11759;51.282;6.642;2024-01-30T07:12:55;31.02;;;13.35;;
23181;SDS011;11759;51.282;6.642;2024-01-30T07:15:21;32.28;;;14.13;;
23181;SDS011;11759;51.282;6.642;2024-01-30T07:17:48;33.90;;;14.50;;
23181;SDS011;11759;51.282;6.642;2024-01-30T07:20:15;27.85;;;13.52;;
23181;SDS011;11759;51.282;6.642;2024-01-30T07:22:43;32.80;;;13.27;;
23181;SDS011;11759;51.282;6.642;2024-01-30T07:25:10;30.58;;;14.45;;
23181;SDS011;11759;51.282;6.642;2024-01-30T07:27:37;24.65;;;13.65;;
23181;SDS011;11759;51.282;6.642;2024-01-30T07:30:03;21.17;;;12.57;;
23181;SDS011;11759;51.282;6.642;2024-01-30T07:32:30;32.22;;;13.40;;
23181;SDS011;11759;51.282;6.642;2024-01-30T07:34:58;26.02;;;12.73;;
23181;SDS011;11759;51.282;6.642;2024-01-30T07:37:34;32.78;;;13.18;;
23181;SDS011;11759;51.282;6.642;2024-01-30T07:40:01;27.45;;;13.55;;
23181;SDS011;11759;51.282;6.642;2024-01-30T07:42:29;29.88;;;13.40;;
23181;SDS011;11759;51.282;6.642;2024-01-30T07:44:56;28.25;;;13.93;;
23181;SDS011;11759;51.282;6.642;2024-01-30T07:47:22;32.85;;;13.75;;
23181;SDS011;11759;51.282;6.642;2024-01-30T07:49:49;23.98;;;13.13;;
23181;SDS011;11759;51.282;6.642;2024-01-30T07:52:16;27.00;;;12.88;;
23181;SDS011;11759;51.282;6.642;2024-01-30T07:54:43;26.98;;;12.60;;
23181;SDS011;11759;51.282;6.642;2024-01-30T07:57:09;24.90;;;11.68;;
23181;SDS011;11759;51.282;6.642;2024-01-30T07:59:36;22.73;;;11.65;;
23181;SDS011;11759;51.282;6.642;2024-01-30T08:02:03;36.42;;;12.52;;
23181;SDS011;11759;51.282;6.642;2024-01-30T08:04:30;23.55;;;12.25;;
23181;SDS011;11759;51.282;6.642;2024-01-30T08:06:56;29.17;;;12.55;;
23181;SDS011;11759;51.282;6.642;2024-01-30T08:09:23;25.88;;;11.73;;
23181;SDS011;11759;51.282;6.642;2024-01-30T08:11:50;26.83;;;12.60;;
23181;SDS011;11759;51.282;6.642;2024-01-30T08:14:16;26.73;;;12.20;;
23181;SDS011;11759;51.282;6.642;2024-01-30T08:16:43;25.80;;;12.02;;
23181;SDS011;11759;51.282;6.642;2024-01-30T08:19:09;20.30;;;11.65;;
23181;SDS011;11759;51.282;6.642;2024-01-30T08:21:36;31.73;;;12.02;;
23181;SDS011;11759;51.282;6.642;2024-01-30T08:24:05;30.35;;;11.70;;
23181;SDS011;11759;51.282;6.642;2024-01-30T08:26:32;21.75;;;12.18;;
23181;SDS011;11759;51.282;6.642;2024-01-30T08:28:59;21.58;;;11.27;;
23181;SDS011;11759;51.282;6.642;2024-01-30T08:31:26;27.00;;;11.95;;
23181;SDS011;11759;51.282;6.642;2024-01-30T08:33:53;23.85;;;11.90;;
23181;SDS011;11759;51.282;6.642;2024-01-30T08:36:20;21.80;;;11.55;;
23181;SDS011;11759;51.282;6.642;2024-01-30T08:38:47;27.45;;;12.90;;
23181;SDS011;11759;51.282;6.642;2024-01-30T08:41:13;21.42;;;10.73;;
23181;SDS011;11759;51.282;6.642;2024-01-30T08:43:40;22.35;;;11.48;;
23181;SDS011;11759;51.282;6.642;2024-01-30T08:46:07;21.58;;;11.15;;
23181;SDS011;11759;51.282;6.642;2024-01-30T08:48:35;27.00;;;12.27;;
23181;SDS011;11759;51.282;6.642;2024-01-30T08:51:02;28.67;;;13.93;;
23181;SDS011;11759;51.282;6.642;2024-01-30T08:53:29;25.20;;;12.40;;
23181;SDS011;11759;51.282;6.642;2024-01-30T08:55:56;27.98;;;13.35;;
23181;SDS011;11759;51.282;6.642;2024-01-30T08:58:25;28.33;;;13.40;;
23181;SDS011;11759;51.282;6.642;2024-01-30T09:00:52;30.63;;;11.85;;
23181;SDS011;11759;51.282;6.642;2024-01-30T09:03:19;25.92;;;12.98;;
23181;SDS011;11759;51.282;6.642;2024-01-30T09:05:45;28.20;;;12.93;;
23181;SDS011;11759;51.282;6.642;2024-01-30T09:08:12;24.55;;;12.27;;
23181;SDS011;11759;51.282;6.642;2024-01-30T09:10:39;24.65;;;12.65;;
23181;SDS011;11759;51.282;6.642;2024-01-30T09:13:07;20.90;;;11.10;;
23181;SDS011;11759;51.282;6.642;2024-01-30T09:15:34;22.60;;;11.25;;
23181;SDS011;11759;51.282;6.642;2024-01-30T09:18:01;28.48;;;11.70;;
23181;SDS011;11759;51.282;6.642;2024-01-30T09:20:28;25.25;;;11.40;;
23181;SDS011;11759;51.282;6.642;2024-01-30T09:23:00;24.42;;;11.30;;
23181;SDS011;11759;51.282;6.642;2024-01-30T09:25:26;23.35;;;10.57;;
23181;SDS011;11759;51.282;6.642;2024-01-30T09:27:53;18.48;;;11.43;;
23181;SDS011;11759;51.282;6.642;2024-01-30T09:30:19;19.60;;;10.32;;
23181;SDS011;11759;51.282;6.642;2024-01-30T09:32:46;21.33;;;11.43;;
23181;SDS011;11759;51.282;6.642;2024-01-30T09:35:13;19.15;;;10.82;;
23181;SDS011;11759;51.282;6.642;2024-01-30T09:37:40;26.98;;;11.68;;
23181;SDS011;11759;51.282;6.642;2024-01-30T09:40:07;30.30;;;11.52;;
23181;SDS011;11759;51.282;6.642;2024-01-30T09:42:34;23.42;;;10.50;;
23181;SDS011;11759;51.282;6.642;2024-01-30T09:45:04;25.35;;;11.50;;
23181;SDS011;11759;51.282;6.642;2024-01-30T09:47:32;23.60;;;11.68;;
23181;SDS011;11759;51.282;6.642;2024-01-30T09:50:02;24.48;;;10.73;;
23181;SDS011;11759;51.282;6.642;2024-01-30T09:52:29;23.88;;;11.77;;
23181;SDS011;11759;51.282;6.642;2024-01-30T09:54:57;22.10;;;9.63;;
23181;SDS011;11759;51.282;6.642;2024-01-30T09:57:26;19.85;;;10.43;;
23181;SDS011;11759;51.282;6.642;2024-01-30T09:59:52;22.45;;;10.88;;
23181;SDS011;11759;51.282;6.642;2024-01-30T10:02:20;21.38;;;10.95;;
23181;SDS011;11759;51.282;6.642;2024-01-30T10:04:48;20.65;;;9.82;;
23181;SDS011;11759;51.282;6.642;2024-01-30T10:07:16;26.80;;;9.98;;
23181;SDS011;11759;51.282;6.642;2024-01-30T10:09:43;20.75;;;10.30;;
23181;SDS011;11759;51.282;6.642;2024-01-30T10:12:10;22.85;;;10.88;;
23181;SDS011;11759;51.282;6.642;2024-01-30T10:14:39;24.42;;;11.30;;
23181;SDS011;11759;51.282;6.642;2024-01-30T10:17:10;24.05;;;10.38;;
23181;SDS011;11759;51.282;6.642;2024-01-30T10:19:49;26.00;;;10.30;;
23181;SDS011;11759;51.282;6.642;2024-01-30T10:22:18;19.17;;;10.13;;
23181;SDS011;11759;51.282;6.642;2024-01-30T10:24:44;24.17;;;10.38;;
23181;SDS011;11759;51.282;6.642;2024-01-30T10:27:12;23.60;;;10.30;;
23181;SDS011;11759;51.282;6.642;2024-01-30T10:29:38;19.90;;;10.10;;
23181;SDS011;11759;51.282;6.642;2024-01-30T10:32:05;22.10;;;10.18;;
23181;SDS011;11759;51.282;6.642;2024-01-30T10:34:32;19.73;;;10.15;;
23181;SDS011;11759;51.282;6.642;2024-01-30T10:39:39;17.00;;;9.35;;
23181;SDS011;11759;51.282;6.642;2024-01-30T10:42:07;23.02;;;9.90;;
23181;SDS011;11759;51.282;6.642;2024-01-30T10:44:43;29.23;;;10.55;;
23181;SDS011;11759;51.282;6.642;2024-01-30T10:47:15;16.77;;;8.93;;
23181;SDS011;11759;51.282;6.642;2024-01-30T10:49:45;19.27;;;9.50;;
23181;SDS011;11759;51.282;6.642;2024-01-30T10:52:13;18.52;;;9.50;;
23181;SDS011;11759;51.282;6.642;2024-01-30T10:54:41;22.85;;;9.02;;
23181;SDS011;11759;51.282;6.642;2024-01-30T10:57:11;21.83;;;9.30;;
23181;SDS011;11759;51.282;6.642;2024-01-30T10:59:39;19.33;;;10.75;;
23181;SDS011;11759;51.282;6.642;2024-01-30T11:02:06;18.90;;;8.80;;
23181;SDS011;11759;51.282;6.642;2024-01-30T11:04:40;22.70;;;8.93;;
23181;SDS011;11759;51.282;6.642;2024-01-30T11:07:17;16.95;;;9.30;;
23181;SDS011;11759;51.282;6.642;2024-01-30T11:09:50;23.73;;;10.30;;
23181;SDS011;11759;51.282;6.642;2024-01-30T11:12:21;17.40;;;9.38;;
23181;SDS011;11759;51.282;6.642;2024-01-30T11:14:49;19.10;;;9.43;;
23181;SDS011;11759;51.282;6.642;2024-01-30T11:17:16;20.05;;;9.30;;
23181;SDS011;11759;51.282;6.642;2024-01-30T11:19:43;22.75;;;9.80;;
23181;SDS011;11759;51.282;6.642;2024-01-30T11:22:12;25.88;;;9.85;;
23181;SDS011;11759;51.282;6.642;2024-01-30T11:24:42;18.20;;;8.50;;
23181;SDS011;11759;51.282;6.642;2024-01-30T11:27:09;15.32;;;9.30;;
23181;SDS011;11759;51.282;6.642;2024-01-30T11:29:39;21.60;;;9.75;;
23181;SDS011;11759;51.282;6.642;2024-01-30T11:32:06;24.35;;;9.68;;
23181;SDS011;11759;51.282;6.642;2024-01-30T11:34:33;26.85;;;10.32;;
23181;SDS011;11759;51.282;6.642;2024-01-30T11:37:03;23.30;;;9.38;;
23181;SDS011;11759;51.282;6.642;2024-01-30T11:39:34;22.63;;;8.85;;
23181;SDS011;11759;51.282;6.642;2024-01-30T11:42:03;28.02;;;9.35;;
23181;SDS011;11759;51.282;6.642;2024-01-30T11:44:31;19.08;;;9.25;;
23181;SDS011;11759;51.282;6.642;2024-01-30T11:46:57;20.00;;;9.02;;
23181;SDS011;11759;51.282;6.642;2024-01-30T11:49:24;22.33;;;9.55;;
23181;SDS011;11759;51.282;6.642;2024-01-30T11:51:51;14.63;;;8.55;;
23181;SDS011;11759;51.282;6.642;2024-01-30T11:54:19;21.00;;;8.32;;
23181;SDS011;11759;51.282;6.642;2024-01-30T11:56:46;17.52;;;8.27;;
23181;SDS011;11759;51.282;6.642;2024-01-30T11:59:13;20.40;;;8.55;;
23181;SDS011;11759;51.282;6.642;2024-01-30T12:01:40;25.73;;;9.00;;
23181;SDS011;11759;51.282;6.642;2024-01-30T12:04:07;21.40;;;8.77;;
23181;SDS011;11759;51.282;6.642;2024-01-30T12:06:36;17.55;;;8.27;;
23181;SDS011;11759;51.282;6.642;2024-01-30T12:09:03;23.05;;;8.88;;
23181;SDS011;11759;51.282;6.642;2024-01-30T12:11:30;18.25;;;8.40;;
23181;SDS011;11759;51.282;6.642;2024-01-30T12:13:57;17.02;;;8.77;;
23181;SDS011;11759;51.282;6.642;2024-01-30T12:16:24;21.38;;;8.45;;
23181;SDS011;11759;51.282;6.642;2024-01-30T12:18:58;25.77;;;9.45;;
23181;SDS011;11759;51.282;6.642;2024-01-30T12:21:25;19.90;;;8.80;;
23181;SDS011;11759;51.282;6.642;2024-01-30T12:23:52;21.08;;;8.00;;
23181;SDS011;11759;51.282;6.642;2024-01-30T12:26:19;15.80;;;6.97;;
23181;SDS011;11759;51.282;6.642;2024-01-30T12:28:49;15.00;;;6.97;;
23181;SDS011;11759;51.282;6.642;2024-01-30T12:31:18;17.98;;;6.35;;
23181;SDS011;11759;51.282;6.642;2024-01-30T12:33:52;20.75;;;7.22;;
23181;SDS011;11759;51.282;6.642;2024-01-30T12:36:19;18.23;;;6.35;;
23181;SDS011;11759;51.282;6.642;2024-01-30T12:38:45;16.83;;;6.75;;
23181;SDS011;11759;51.282;6.642;2024-01-30T12:41:12;19.35;;;7.18;;
23181;SDS011;11759;51.282;6.642;2024-01-30T12:43:39;15.52;;;6.65;;
23181;SDS011;11759;51.282;6.642;2024-01-30T12:46:05;22.52;;;7.72;;
23181;SDS011;11759;51.282;6.642;2024-01-30T12:48:33;17.90;;;6.75;;
23181;SDS011;11759;51.282;6.642;2024-01-30T12:50:59;20.33;;;7.53;;
23181;SDS011;11759;51.282;6.642;2024-01-30T12:53:26;14.57;;;7.32;;
23181;SDS011;11759;51.282;6.642;2024-01-30T12:55:53;17.13;;;7.18;;
23181;SDS011;11759;51.282;6.642;2024-01-30T12:58:20;19.10;;;6.97;;
23181;SDS011;11759;51.282;6.642;2024-01-30T13:00:47;15.23;;;7.10;;
23181;SDS011;11759;51.282;6.642;2024-01-30T13:03:14;16.33;;;7.05;;
23181;SDS011;11759;51.282;6.642;2024-01-30T13:05:41;15.80;;;7.05;;
23181;SDS011;11759;51.282;6.642;2024-01-30T13:08:07;15.20;;;6.97;;
23181;SDS011;11759;51.282;6.642;2024-01-30T13:10:34;17.50;;;6.72;;
23181;SDS011;11759;51.282;6.642;2024-01-30T13:13:01;18.90;;;7.13;;
23181;SDS011;11759;51.282;6.642;2024-01-30T13:15:28;18.08;;;7.30;;
23181;SDS011;11759;51.282;6.642;2024-01-30T13:17:54;17.15;;;7.20;;
23181;SDS011;11759;51.282;6.642;2024-01-30T13:20:21;16.83;;;7.10;;
23181;SDS011;11759;51.282;6.642;2024-01-30T13:22:48;13.38;;;6.88;;
23181;SDS011;11759;51.282;6.642;2024-01-30T13:25:16;18.33;;;7.38;;
23181;SDS011;11759;51.282;6.642;2024-01-30T13:27:42;15.65;;;7.65;;
23181;SDS011;11759;51.282;6.642;2024-01-30T13:30:09;19.17;;;7.43;;
23181;SDS011;11759;51.282;6.642;2024-01-30T13:32:36;14.80;;;7.47;;
23181;SDS011;11759;51.282;6.642;2024-01-30T13:35:04;15.98;;;7.43;;
23181;SDS011;11759;51.282;6.642;2024-01-30T13:37:31;14.55;;;7.57;;
23181;SDS011;11759;51.282;6.642;2024-01-30T13:39:58;15.00;;;8.15;;
23181;SDS011;11759;51.282;6.642;2024-01-30T13:42:24;23.13;;;8.10;;
23181;SDS011;11759;51.282;6.642;2024-01-30T13:44:51;16.63;;;8.20;;
23181;SDS011;11759;51.282;6.642;2024-01-30T13:47:18;23.73;;;8.63;;
23181;SDS011;11759;51.282;6.642;2024-01-30T13:49:47;19.38;;;7.93;;
23181;SDS011;11759;51.282;6.642;2024-01-30T13:52:14;17.45;;;7.65;;
23181;SDS011;11759;51.282;6.642;2024-01-30T13:54:42;19.00;;;8.00;;
23181;SDS011;11759;51.282;6.642;2024-01-30T13:57:09;16.95;;;7.63;;
23181;SDS011;11759;51.282;6.642;2024-01-30T13:59:35;19.15;;;7.65;;
23181;SDS011;11759;51.282;6.642;2024-01-30T14:02:04;21.77;;;7.97;;
23181;SDS011;11759;51.282;6.642;2024-01-30T14:04:31;19.83;;;8.55;;
23181;SDS011;11759;51.282;6.642;2024-01-30T14:06:58;28.50;;;9.25;;
23181;SDS011;11759;51.282;6.642;2024-01-30T14:09:30;19.33;;;8.35;;
23181;SDS011;11759;51.282;6.642;2024-01-30T14:11:58;16.90;;;7.95;;
23181;SDS011;11759;51.282;6.642;2024-01-30T14:14:25;17.48;;;7.93;;
23181;SDS011;11759;51.282;6.642;2024-01-30T14:16:51;18.48;;;8.05;;
23181;SDS011;11759;51.282;6.642;2024-01-30T14:19:18;15.18;;;7.53;;
23181;SDS011;11759;51.282;6.642;2024-01-30T14:21:45;15.68;;;7.88;;
23181;SDS011;11759;51.282;6.642;2024-01-30T14:24:12;15.07;;;7.18;;
23181;SDS011;11759;51.282;6.642;2024-01-30T14:26:38;12.98;;;6.85;;
23181;SDS011;11759;51.282;6.642;2024-01-30T14:29:05;17.83;;;7.78;;
23181;SDS011;11759;51.282;6.642;2024-01-30T14:31:31;15.82;;;6.75;;